Lynden Pindling International Airport
MYNN : rendu visible

Aérodrome :











RETROUVEZ-NOUS SUR...

 
LOGIN :

S'inscrire | Disclaimer

   EN    FR    IT 

 









Légende :    VFR   VFR Marginal   IFR   IFR Intensif   IFR Très Intensif
Visi : 
Plafond : 
>= 8 km
>= 3000ft
5 à 8 km
1000 à 3000 ft
1500m à 5 km
500 à 1000 ft
800 à 1500m
200 à 500 ft
< 800m
< 200 ft
Symboles :   Orages  Brouillard  Fortes neiges  Fortes précipitations  Vent > 20 kt






- Altitude de l'aérodrome : 16 ft
- Code IATA : NAS


MYNN - Lynden Pindling International

DERNIER METAR :
  • 081200Z VRB02KT 9999 FEW018 25/21 A3000

METARs EXPIRÉS :
  • 081100Z 20003KT 9999 SCT018 SCT035 23/20 A2998
  • 081000Z 20003KT 9999 SCT018 BKN035 23/20 A2998

TAF MYNN
Valide du 08 à 12h jusqu'au 09 à 12h UTC


081030Z 0812/0912 15008KT 9999 FEW018 SCT035



MET'MAP, la Météo Aéronautique d'un coup d'oeil ! - Copyright ORBIFLY Décembre 2007 - Disclaimer

ORBIFLY MET'MAP TEAM :

Programmation & Développement : Alexandra Zaïnal
Sur une idée originale de : Baudouin d'Aumeries
Assistance à la programmation : Marc-Olivier Méhu
Soutien technique & logistique : Manuel Goepfert

Contact : metmap@orbifly.com




SOURCES & CREDITS :

   NOAA       Earth
Advisory